Brise-du-Lac, Quebec

3:19 AM EDT on April 26, 2017 (GMT -0400)
Glend Wexford | | Change Station

Elev 300 ft 45.99 °N, 74.12 °W | Updated 47 seconds ago

Overcast
Overcast
46.1 °F
Feels Like 46 °F
N
0.0
Wind Variable Wind from NE
Gusts 0.0 mph

Today
High -- | Low -- °F
--% Chance of Precip.
Yesterday
High -- | Low -- °F
Precip. -- in
Pressure 29.99 in
Visibility 5.0 miles
Clouds Scattered Clouds 300 ft
Mostly Cloudy 1100 ft
Overcast 5000 ft
Windchill 46 °F
Dew Point 46 °F
Humidity 100%
Rainfall 0.00 in
Snow Depth Not available.
5:50 AM 7:58 PM
Waning Crescent, 0% visible
METAR CYMX 260700Z 03009G16KT 010V090 5SM BR SCT003 BKN011 OVC050 08/08 A2998 RMK SF4SC3SC1 SLP155
Pressure 29.99 in
Visibility 5.0 miles
Clouds Scattered Clouds 300 ft
Mostly Cloudy 1100 ft
Overcast 5000 ft
Windchill 46 °F
Dew Point 46 °F
Humidity 100%
Rainfall 0.00 in
Snow Depth Not available.
5:50 AM 7:58 PM
Waning Crescent, 0% visible
METAR CYMX 260700Z 03009G16KT 010V090 5SM BR SCT003 BKN011 OVC050 08/08 A2998 RMK SF4SC3SC1 SLP155

Get Severe Weather Alerts

Thanks for signing up!

Be on the lookout for a verification email in your inbox.

You'll start receiving the daily forecast at 8 AM.

×

10-Day Weather Forecast

Almanac

Astronomy

Apr. 26, 2017 Rise Set
Actual Time
Civil Twilight
Nautical Twilight
Astronomical Twilight
Moon
Length of Visible Light
Length of Day
Tomorrow will be .
, % of the Moon is Illuminated

Today's Extremes

Country Highs Country Lows

Community

WunderPhotos

WunderBlog® & News

Nearby

Air Quality

  Air Quality AQ Index Pollutant
Not available.

Snow Depth

Station Depth Elevation

Earthquake Activity

City Distance Mag. Time & Date
Minimum magnitude displayed is 2.5.

Coastal Water Temperatures

Place Temperature

Stations

Nearby Weather Stations

Station Location Temp. Windchill Dew Point Humidity Wind Precip. Elev Updated Type
                   

Watches & Warnings

There are currently no watches in effect.